sensor_id;sensor_type;location;lat;lon;timestamp;temperature;humidity
65470;DHT22;52067;50.710;14.492;2022-07-06T00:01:31;15.61;73.52
65470;DHT22;52067;50.710;14.492;2022-07-06T00:03:56;16.06;70.18
65470;DHT22;52067;50.710;14.492;2022-07-06T00:06:22;16.60;67.81
65470;DHT22;52067;50.710;14.492;2022-07-06T00:08:48;16.79;66.45
65470;DHT22;52067;50.710;14.492;2022-07-06T00:11:13;16.92;66.84
65470;DHT22;52067;50.710;14.492;2022-07-06T00:13:39;17.09;65.20
65470;DHT22;52067;50.710;14.492;2022-07-06T00:16:04;17.36;63.88
65470;DHT22;52067;50.710;14.492;2022-07-06T00:18:29;17.40;64.16
65470;DHT22;52067;50.710;14.492;2022-07-06T00:20:55;17.29;65.96
65470;DHT22;52067;50.710;14.492;2022-07-06T00:23:21;17.03;66.52
65470;DHT22;52067;50.710;14.492;2022-07-06T00:25:46;16.58;70.24
65470;DHT22;52067;50.710;14.492;2022-07-06T00:28:13;16.07;72.59
65470;DHT22;52067;50.710;14.492;2022-07-06T00:30:39;15.85;73.62
65470;DHT22;52067;50.710;14.492;2022-07-06T00:33:04;15.61;75.37
65470;DHT22;52067;50.710;14.492;2022-07-06T00:35:29;15.58;74.91
65470;DHT22;52067;50.710;14.492;2022-07-06T00:37:55;15.58;74.68
65470;DHT22;52067;50.710;14.492;2022-07-06T00:40:20;15.52;75.58
65470;DHT22;52067;50.710;14.492;2022-07-06T00:42:47;15.51;76.44
65470;DHT22;52067;50.710;14.492;2022-07-06T00:45:15;15.55;74.66
65470;DHT22;52067;50.710;14.492;2022-07-06T00:47:41;15.31;75.65
65470;DHT22;52067;50.710;14.492;2022-07-06T00:50:09;15.32;76.30
65470;DHT22;52067;50.710;14.492;2022-07-06T00:53:00;15.23;76.60
65470;DHT22;52067;50.710;14.492;2022-07-06T00:55:32;15.06;76.81
65470;DHT22;52067;50.710;14.492;2022-07-06T00:58:01;15.16;75.62
65470;DHT22;52067;50.710;14.492;2022-07-06T01:00:27;15.27;74.25
65470;DHT22;52067;50.710;14.492;2022-07-06T01:02:53;15.28;74.84
65470;DHT22;52067;50.710;14.492;2022-07-06T01:05:20;15.24;75.77
65470;DHT22;52067;50.710;14.492;2022-07-06T01:07:47;15.23;75.23
65470;DHT22;52067;50.710;14.492;2022-07-06T01:10:15;15.30;74.62
65470;DHT22;52067;50.710;14.492;2022-07-06T01:12:43;15.44;74.10
65470;DHT22;52067;50.710;14.492;2022-07-06T01:15:11;15.51;73.01
65470;DHT22;52067;50.710;14.492;2022-07-06T01:17:41;15.45;73.62
65470;DHT22;52067;50.710;14.492;2022-07-06T01:20:20;15.58;72.10
65470;DHT22;52067;50.710;14.492;2022-07-06T01:22:47;15.59;72.05
65470;DHT22;52067;50.710;14.492;2022-07-06T01:25:12;15.72;70.23
65470;DHT22;52067;50.710;14.492;2022-07-06T01:27:39;15.61;73.20
65470;DHT22;52067;50.710;14.492;2022-07-06T01:30:07;15.72;72.86
65470;DHT22;52067;50.710;14.492;2022-07-06T01:32:33;15.88;73.32
65470;DHT22;52067;50.710;14.492;2022-07-06T01:34:59;15.95;70.92
65470;DHT22;52067;50.710;14.492;2022-07-06T01:37:25;15.97;70.32
65470;DHT22;52067;50.710;14.492;2022-07-06T01:39:50;15.86;72.64
65470;DHT22;52067;50.710;14.492;2022-07-06T01:42:15;15.89;74.12
65470;DHT22;52067;50.710;14.492;2022-07-06T01:44:42;15.63;75.46
65470;DHT22;52067;50.710;14.492;2022-07-06T01:47:08;15.54;76.77
65470;DHT22;52067;50.710;14.492;2022-07-06T01:49:33;15.38;76.72
65470;DHT22;52067;50.710;14.492;2022-07-06T01:51:58;15.28;77.48
65470;DHT22;52067;50.710;14.492;2022-07-06T01:54:24;15.23;78.23
65470;DHT22;52067;50.710;14.492;2022-07-06T01:56:49;15.10;79.63
65470;DHT22;52067;50.710;14.492;2022-07-06T01:59:14;15.14;79.31
65470;DHT22;52067;50.710;14.492;2022-07-06T02:01:40;14.93;80.18
65470;DHT22;52067;50.710;14.492;2022-07-06T02:04:05;14.96;77.34
65470;DHT22;52067;50.710;14.492;2022-07-06T02:06:30;15.00;77.04
65470;DHT22;52067;50.710;14.492;2022-07-06T02:08:56;14.84;78.70
65470;DHT22;52067;50.710;14.492;2022-07-06T02:11:22;14.81;79.57
65470;DHT22;52067;50.710;14.492;2022-07-06T02:13:48;14.84;79.14
65470;DHT22;52067;50.710;14.492;2022-07-06T02:16:13;14.89;79.60
65470;DHT22;52067;50.710;14.492;2022-07-06T02:18:39;14.89;79.08
65470;DHT22;52067;50.710;14.492;2022-07-06T02:21:04;14.87;79.10
65470;DHT22;52067;50.710;14.492;2022-07-06T02:23:30;15.03;77.84
65470;DHT22;52067;50.710;14.492;2022-07-06T02:25:55;15.10;77.36
65470;DHT22;52067;50.710;14.492;2022-07-06T02:28:21;15.17;76.82
65470;DHT22;52067;50.710;14.492;2022-07-06T02:30:46;15.30;76.14
65470;DHT22;52067;50.710;14.492;2022-07-06T02:33:13;15.30;77.09
65470;DHT22;52067;50.710;14.492;2022-07-06T02:35:38;15.41;76.93
65470;DHT22;52067;50.710;14.492;2022-07-06T02:38:07;15.57;76.51
65470;DHT22;52067;50.710;14.492;2022-07-06T02:40:33;15.69;75.77
65470;DHT22;52067;50.710;14.492;2022-07-06T02:42:58;15.70;77.19
65470;DHT22;52067;50.710;14.492;2022-07-06T02:45:23;15.45;77.61
65470;DHT22;52067;50.710;14.492;2022-07-06T02:47:49;15.21;79.99
65470;DHT22;52067;50.710;14.492;2022-07-06T02:50:16;14.90;81.89
65470;DHT22;52067;50.710;14.492;2022-07-06T02:52:41;15.07;80.35
65470;DHT22;52067;50.710;14.492;2022-07-06T02:55:07;14.87;81.12
65470;DHT22;52067;50.710;14.492;2022-07-06T02:57:33;14.69;81.54
65470;DHT22;52067;50.710;14.492;2022-07-06T02:59:58;14.72;81.50
65470;DHT22;52067;50.710;14.492;2022-07-06T03:02:23;14.72;81.32
65470;DHT22;52067;50.710;14.492;2022-07-06T03:04:50;14.53;82.06
65470;DHT22;52067;50.710;14.492;2022-07-06T03:07:15;14.55;82.21
65470;DHT22;52067;50.710;14.492;2022-07-06T03:09:40;14.56;82.64
65470;DHT22;52067;50.710;14.492;2022-07-06T03:12:06;14.66;82.41
65470;DHT22;52067;50.710;14.492;2022-07-06T03:14:32;14.60;81.89
65470;DHT22;52067;50.710;14.492;2022-07-06T03:16:57;14.73;82.35
65470;DHT22;52067;50.710;14.492;2022-07-06T03:19:22;14.72;81.19
65470;DHT22;52067;50.710;14.492;2022-07-06T03:21:48;14.87;80.97
65470;DHT22;52067;50.710;14.492;2022-07-06T03:24:13;15.08;79.89
65470;DHT22;52067;50.710;14.492;2022-07-06T03:26:38;15.11;79.49
65470;DHT22;52067;50.710;14.492;2022-07-06T03:29:04;15.01;81.03
65470;DHT22;52067;50.710;14.492;2022-07-06T03:31:29;15.01;81.23
65470;DHT22;52067;50.710;14.492;2022-07-06T03:33:55;14.94;81.72
65470;DHT22;52067;50.710;14.492;2022-07-06T03:36:20;14.94;81.91
65470;DHT22;52067;50.710;14.492;2022-07-06T03:38:45;14.76;82.61
65470;DHT22;52067;50.710;14.492;2022-07-06T03:41:11;14.59;83.97
65470;DHT22;52067;50.710;14.492;2022-07-06T03:43:36;14.33;84.04
65470;DHT22;52067;50.710;14.492;2022-07-06T03:46:02;14.38;84.13
65470;DHT22;52067;50.710;14.492;2022-07-06T03:48:28;14.53;84.04
65470;DHT22;52067;50.710;14.492;2022-07-06T03:50:54;14.46;84.76
65470;DHT22;52067;50.710;14.492;2022-07-06T03:53:19;14.48;84.30
65470;DHT22;52067;50.710;14.492;2022-07-06T03:55:45;14.63;84.53
65470;DHT22;52067;50.710;14.492;2022-07-06T03:58:30;14.49;84.21
65470;DHT22;52067;50.710;14.492;2022-07-06T04:00:55;14.60;84.14
65470;DHT22;52067;50.710;14.492;2022-07-06T04:03:21;14.77;84.98
65470;DHT22;52067;50.710;14.492;2022-07-06T04:05:46;14.89;83.20
65470;DHT22;52067;50.710;14.492;2022-07-06T04:08:12;15.21;82.54
65470;DHT22;52067;50.710;14.492;2022-07-06T04:10:37;15.18;82.62
65470;DHT22;52067;50.710;14.492;2022-07-06T04:13:02;15.41;81.81
65470;DHT22;52067;50.710;14.492;2022-07-06T04:15:28;15.38;82.53
65470;DHT22;52067;50.710;14.492;2022-07-06T04:17:53;15.58;81.22
65470;DHT22;52067;50.710;14.492;2022-07-06T04:20:20;15.49;81.73
65470;DHT22;52067;50.710;14.492;2022-07-06T04:22:46;15.23;83.26
65470;DHT22;52067;50.710;14.492;2022-07-06T04:25:12;15.27;81.51
65470;DHT22;52067;50.710;14.492;2022-07-06T04:27:37;15.27;81.20
65470;DHT22;52067;50.710;14.492;2022-07-06T04:30:04;14.91;83.50
65470;DHT22;52067;50.710;14.492;2022-07-06T04:32:30;14.90;83.81
65470;DHT22;52067;50.710;14.492;2022-07-06T04:34:55;14.93;83.59
65470;DHT22;52067;50.710;14.492;2022-07-06T04:37:21;14.96;82.36
65470;DHT22;52067;50.710;14.492;2022-07-06T04:39:46;15.03;81.99
65470;DHT22;52067;50.710;14.492;2022-07-06T04:42:11;15.12;82.13
65470;DHT22;52067;50.710;14.492;2022-07-06T04:44:37;15.11;81.86
65470;DHT22;52067;50.710;14.492;2022-07-06T04:47:02;15.01;82.77
65470;DHT22;52067;50.710;14.492;2022-07-06T04:49:28;15.00;82.78
65470;DHT22;52067;50.710;14.492;2022-07-06T04:51:53;15.07;82.46
65470;DHT22;52067;50.710;14.492;2022-07-06T04:54:18;15.12;84.10
65470;DHT22;52067;50.710;14.492;2022-07-06T04:56:44;15.32;81.79
65470;DHT22;52067;50.710;14.492;2022-07-06T04:59:09;15.52;81.62
65470;DHT22;52067;50.710;14.492;2022-07-06T05:01:35;15.81;80.06
65470;DHT22;52067;50.710;14.492;2022-07-06T05:04:00;15.89;78.31
65470;DHT22;52067;50.710;14.492;2022-07-06T05:06:25;15.73;80.30
65470;DHT22;52067;50.710;14.492;2022-07-06T05:08:51;15.78;79.07
65470;DHT22;52067;50.710;14.492;2022-07-06T05:11:16;15.78;78.53
65470;DHT22;52067;50.710;14.492;2022-07-06T05:13:41;15.76;79.26
65470;DHT22;52067;50.710;14.492;2022-07-06T05:16:07;15.86;79.81
65470;DHT22;52067;50.710;14.492;2022-07-06T05:18:32;15.81;79.42
65470;DHT22;52067;50.710;14.492;2022-07-06T05:20:58;16.00;78.83
65470;DHT22;52067;50.710;14.492;2022-07-06T05:23:23;16.03;77.90
65470;DHT22;52067;50.710;14.492;2022-07-06T05:25:49;15.75;79.01
65470;DHT22;52067;50.710;14.492;2022-07-06T05:28:14;15.79;78.03
65470;DHT22;52067;50.710;14.492;2022-07-06T05:30:40;15.89;78.54
65470;DHT22;52067;50.710;14.492;2022-07-06T05:33:05;16.07;78.10
65470;DHT22;52067;50.710;14.492;2022-07-06T05:35:30;16.20;77.05
65470;DHT22;52067;50.710;14.492;2022-07-06T05:37:56;16.45;75.95
65470;DHT22;52067;50.710;14.492;2022-07-06T05:40:21;16.40;77.34
65470;DHT22;52067;50.710;14.492;2022-07-06T05:42:47;16.61;76.33
65470;DHT22;52067;50.710;14.492;2022-07-06T05:45:12;16.75;75.83
65470;DHT22;52067;50.710;14.492;2022-07-06T05:47:38;16.75;75.84
65470;DHT22;52067;50.710;14.492;2022-07-06T05:50:22;16.64;75.09
65470;DHT22;52067;50.710;14.492;2022-07-06T05:53:02;16.54;76.15
65470;DHT22;52067;50.710;14.492;2022-07-06T05:55:27;16.55;75.66
65470;DHT22;52067;50.710;14.492;2022-07-06T05:57:54;16.68;77.55
65470;DHT22;52067;50.710;14.492;2022-07-06T06:00:24;16.71;76.38
65470;DHT22;52067;50.710;14.492;2022-07-06T06:02:50;16.74;75.22
65470;DHT22;52067;50.710;14.492;2022-07-06T06:05:16;16.94;75.79
65470;DHT22;52067;50.710;14.492;2022-07-06T06:07:42;17.06;75.56
65470;DHT22;52067;50.710;14.492;2022-07-06T06:10:11;16.91;73.69
65470;DHT22;52067;50.710;14.492;2022-07-06T06:12:37;17.01;73.72
65470;DHT22;52067;50.710;14.492;2022-07-06T06:15:03;17.13;73.68
65470;DHT22;52067;50.710;14.492;2022-07-06T06:17:29;17.13;73.57
65470;DHT22;52067;50.710;14.492;2022-07-06T06:19:55;17.08;73.40
65470;DHT22;52067;50.710;14.492;2022-07-06T06:22:21;17.06;74.05
65470;DHT22;52067;50.710;14.492;2022-07-06T06:24:46;17.24;74.09
65470;DHT22;52067;50.710;14.492;2022-07-06T06:27:12;17.39;72.97
65470;DHT22;52067;50.710;14.492;2022-07-06T06:29:37;17.24;73.09
65470;DHT22;52067;50.710;14.492;2022-07-06T06:32:03;17.34;72.34
65470;DHT22;52067;50.710;14.492;2022-07-06T06:34:30;17.30;71.70
65470;DHT22;52067;50.710;14.492;2022-07-06T06:36:56;17.36;72.53
65470;DHT22;52067;50.710;14.492;2022-07-06T06:39:21;17.30;69.80
65470;DHT22;52067;50.710;14.492;2022-07-06T06:41:46;17.40;71.59
65470;DHT22;52067;50.710;14.492;2022-07-06T06:44:12;17.29;71.57
65470;DHT22;52067;50.710;14.492;2022-07-06T06:46:37;17.57;70.73
65470;DHT22;52067;50.710;14.492;2022-07-06T06:49:03;17.59;71.03
65470;DHT22;52067;50.710;14.492;2022-07-06T06:51:28;17.73;71.43
65470;DHT22;52067;50.710;14.492;2022-07-06T06:53:54;18.01;70.38
65470;DHT22;52067;50.710;14.492;2022-07-06T06:56:19;18.05;68.78
65470;DHT22;52067;50.710;14.492;2022-07-06T06:58:44;17.87;70.37
65470;DHT22;52067;50.710;14.492;2022-07-06T07:01:10;17.90;71.60
65470;DHT22;52067;50.710;14.492;2022-07-06T07:03:35;17.87;71.43
65470;DHT22;52067;50.710;14.492;2022-07-06T07:06:01;17.97;69.45
65470;DHT22;52067;50.710;14.492;2022-07-06T07:08:26;18.06;69.95
65470;DHT22;52067;50.710;14.492;2022-07-06T07:10:52;18.16;71.07
65470;DHT22;52067;50.710;14.492;2022-07-06T07:13:17;17.97;70.64
65470;DHT22;52067;50.710;14.492;2022-07-06T07:15:43;18.08;69.83
65470;DHT22;52067;50.710;14.492;2022-07-06T07:18:08;17.94;70.37
65470;DHT22;52067;50.710;14.492;2022-07-06T07:20:34;17.84;69.16
65470;DHT22;52067;50.710;14.492;2022-07-06T07:23:00;17.81;70.21
65470;DHT22;52067;50.710;14.492;2022-07-06T07:25:26;17.97;70.39
65470;DHT22;52067;50.710;14.492;2022-07-06T07:27:51;18.12;69.77
65470;DHT22;52067;50.710;14.492;2022-07-06T07:30:17;18.01;68.89
65470;DHT22;52067;50.710;14.492;2022-07-06T07:32:42;18.21;72.52
65470;DHT22;52067;50.710;14.492;2022-07-06T07:35:09;18.52;69.19
65470;DHT22;52067;50.710;14.492;2022-07-06T07:37:34;18.52;66.45
65470;DHT22;52067;50.710;14.492;2022-07-06T07:40:00;18.48;65.40
65470;DHT22;52067;50.710;14.492;2022-07-06T07:42:26;18.43;68.26
65470;DHT22;52067;50.710;14.492;2022-07-06T07:44:51;18.56;65.84
65470;DHT22;52067;50.710;14.492;2022-07-06T07:47:16;18.73;65.19
65470;DHT22;52067;50.710;14.492;2022-07-06T07:49:42;18.70;65.04
65470;DHT22;52067;50.710;14.492;2022-07-06T07:52:07;18.64;66.81
65470;DHT22;52067;50.710;14.492;2022-07-06T07:54:32;18.61;67.41
65470;DHT22;52067;50.710;14.492;2022-07-06T07:56:58;18.89;66.73
65470;DHT22;52067;50.710;14.492;2022-07-06T07:59:23;19.18;70.01
65470;DHT22;52067;50.710;14.492;2022-07-06T08:01:49;19.04;66.54
65470;DHT22;52067;50.710;14.492;2022-07-06T08:04:14;19.31;69.10
65470;DHT22;52067;50.710;14.492;2022-07-06T08:06:40;19.19;68.06
65470;DHT22;52067;50.710;14.492;2022-07-06T08:09:05;18.94;64.51
65470;DHT22;52067;50.710;14.492;2022-07-06T08:11:33;19.12;64.09
65470;DHT22;52067;50.710;14.492;2022-07-06T08:13:58;19.32;64.77
65470;DHT22;52067;50.710;14.492;2022-07-06T08:16:24;19.14;64.92
65470;DHT22;52067;50.710;14.492;2022-07-06T08:18:50;18.98;66.66
65470;DHT22;52067;50.710;14.492;2022-07-06T08:21:15;19.21;63.95
65470;DHT22;52067;50.710;14.492;2022-07-06T08:23:41;18.91;66.51
65470;DHT22;52067;50.710;14.492;2022-07-06T08:26:06;19.17;65.55
65470;DHT22;52067;50.710;14.492;2022-07-06T08:28:31;19.24;65.76
65470;DHT22;52067;50.710;14.492;2022-07-06T08:30:57;19.44;69.27
65470;DHT22;52067;50.710;14.492;2022-07-06T08:33:22;19.72;67.25
65470;DHT22;52067;50.710;14.492;2022-07-06T08:35:48;19.69;64.12
65470;DHT22;52067;50.710;14.492;2022-07-06T08:38:13;19.55;65.03
65470;DHT22;52067;50.710;14.492;2022-07-06T08:40:40;19.47;65.11
65470;DHT22;52067;50.710;14.492;2022-07-06T08:43:05;19.27;65.37
65470;DHT22;52067;50.710;14.492;2022-07-06T08:45:33;19.34;63.85
65470;DHT22;52067;50.710;14.492;2022-07-06T08:48:03;19.52;67.06
65470;DHT22;52067;50.710;14.492;2022-07-06T08:50:29;19.68;64.00
65470;DHT22;52067;50.710;14.492;2022-07-06T08:52:55;19.96;64.31
65470;DHT22;52067;50.710;14.492;2022-07-06T08:55:22;20.27;61.14
65470;DHT22;52067;50.710;14.492;2022-07-06T08:57:48;20.13;63.00
65470;DHT22;52067;50.710;14.492;2022-07-06T09:00:14;20.23;59.45
65470;DHT22;52067;50.710;14.492;2022-07-06T09:02:41;20.07;61.22
65470;DHT22;52067;50.710;14.492;2022-07-06T09:05:06;19.93;62.22
65470;DHT22;52067;50.710;14.492;2022-07-06T09:07:34;20.40;61.82
65470;DHT22;52067;50.710;14.492;2022-07-06T09:09:59;20.16;61.45
65470;DHT22;52067;50.710;14.492;2022-07-06T09:12:28;20.43;62.15
65470;DHT22;52067;50.710;14.492;2022-07-06T09:14:57;20.37;60.85
65470;DHT22;52067;50.710;14.492;2022-07-06T09:17:29;20.00;64.34
65470;DHT22;52067;50.710;14.492;2022-07-06T09:19:56;20.35;62.95
65470;DHT22;52067;50.710;14.492;2022-07-06T09:22:31;20.37;60.69
65470;DHT22;52067;50.710;14.492;2022-07-06T09:25:05;20.49;62.32
65470;DHT22;52067;50.710;14.492;2022-07-06T09:27:31;20.78;56.33
65470;DHT22;52067;50.710;14.492;2022-07-06T09:30:00;20.59;60.64
65470;DHT22;52067;50.710;14.492;2022-07-06T09:32:28;20.68;53.85
65470;DHT22;52067;50.710;14.492;2022-07-06T09:34:56;20.79;56.89
65470;DHT22;52067;50.710;14.492;2022-07-06T09:37:21;20.67;61.60
65470;DHT22;52067;50.710;14.492;2022-07-06T09:39:48;21.10;56.40
65470;DHT22;52067;50.710;14.492;2022-07-06T09:42:14;21.20;52.79
65470;DHT22;52067;50.710;14.492;2022-07-06T09:44:40;21.40;52.78
65470;DHT22;52067;50.710;14.492;2022-07-06T09:47:08;20.76;58.63
65470;DHT22;52067;50.710;14.492;2022-07-06T09:49:35;21.14;56.11
65470;DHT22;52067;50.710;14.492;2022-07-06T09:52:04;21.60;55.48
65470;DHT22;52067;50.710;14.492;2022-07-06T09:54:30;21.74;53.70
65470;DHT22;52067;50.710;14.492;2022-07-06T09:56:57;21.65;55.35
65470;DHT22;52067;50.710;14.492;2022-07-06T09:59:27;20.64;57.71
65470;DHT22;52067;50.710;14.492;2022-07-06T10:01:57;21.16;56.91
65470;DHT22;52067;50.710;14.492;2022-07-06T10:04:24;21.47;52.41
65470;DHT22;52067;50.710;14.492;2022-07-06T10:06:49;21.24;53.10
65470;DHT22;52067;50.710;14.492;2022-07-06T10:09:15;21.97;52.71
65470;DHT22;52067;50.710;14.492;2022-07-06T10:14:12;21.42;53.17
65470;DHT22;52067;50.710;14.492;2022-07-06T10:16:40;21.50;52.94
65470;DHT22;52067;50.710;14.492;2022-07-06T10:19:07;21.26;54.17
65470;DHT22;52067;50.710;14.492;2022-07-06T10:21:38;21.29;57.61
65470;DHT22;52067;50.710;14.492;2022-07-06T10:24:05;21.55;53.19
65470;DHT22;52067;50.710;14.492;2022-07-06T10:26:32;21.36;52.43
65470;DHT22;52067;50.710;14.492;2022-07-06T10:28:58;21.61;54.54
65470;DHT22;52067;50.710;14.492;2022-07-06T10:31:25;21.67;53.53
65470;DHT22;52067;50.710;14.492;2022-07-06T10:33:52;21.49;55.03
65470;DHT22;52067;50.710;14.492;2022-07-06T10:36:18;22.11;52.04
65470;DHT22;52067;50.710;14.492;2022-07-06T10:38:49;22.11;52.97
65470;DHT22;52067;50.710;14.492;2022-07-06T10:41:15;22.64;49.61
65470;DHT22;52067;50.710;14.492;2022-07-06T10:43:47;23.04;54.25
65470;DHT22;52067;50.710;14.492;2022-07-06T10:46:15;22.01;52.50
65470;DHT22;52067;50.710;14.492;2022-07-06T10:48:43;23.21;51.05
65470;DHT22;52067;50.710;14.492;2022-07-06T10:51:11;23.77;48.28
65470;DHT22;52067;50.710;14.492;2022-07-06T10:53:38;25.01;41.76
65470;DHT22;52067;50.710;14.492;2022-07-06T10:56:06;25.41;40.96
65470;DHT22;52067;50.710;14.492;2022-07-06T10:58:46;25.16;39.11
65470;DHT22;52067;50.710;14.492;2022-07-06T11:01:14;26.08;38.92
65470;DHT22;52067;50.710;14.492;2022-07-06T11:03:41;23.85;47.86
65470;DHT22;52067;50.710;14.492;2022-07-06T11:14:01;26.46;37.77
65470;DHT22;52067;50.710;14.492;2022-07-06T11:16:28;25.59;42.17
65470;DHT22;52067;50.710;14.492;2022-07-06T11:21:49;24.31;40.56
65470;DHT22;52067;50.710;14.492;2022-07-06T11:24:18;25.94;40.87
65470;DHT22;52067;50.710;14.492;2022-07-06T11:26:46;23.51;46.12
65470;DHT22;52067;50.710;14.492;2022-07-06T11:29:13;22.56;48.79
65470;DHT22;52067;50.710;14.492;2022-07-06T11:31:41;23.11;45.02
65470;DHT22;52067;50.710;14.492;2022-07-06T11:34:09;25.27;38.92
65470;DHT22;52067;50.710;14.492;2022-07-06T11:36:35;25.19;40.07
65470;DHT22;52067;50.710;14.492;2022-07-06T11:39:02;25.12;40.08
65470;DHT22;52067;50.710;14.492;2022-07-06T11:41:27;25.78;39.63
65470;DHT22;52067;50.710;14.492;2022-07-06T11:43:53;25.89;40.75
65470;DHT22;52067;50.710;14.492;2022-07-06T11:46:36;26.11;39.09
65470;DHT22;52067;50.710;14.492;2022-07-06T11:49:07;24.75;40.66
65470;DHT22;52067;50.710;14.492;2022-07-06T11:51:34;25.80;40.25
65470;DHT22;52067;50.710;14.492;2022-07-06T11:54:07;26.87;34.93
65470;DHT22;52067;50.710;14.492;2022-07-06T11:56:32;28.11;36.59
65470;DHT22;52067;50.710;14.492;2022-07-06T11:58:59;29.70;31.91
65470;DHT22;52067;50.710;14.492;2022-07-06T12:01:26;25.67;37.77
65470;DHT22;52067;50.710;14.492;2022-07-06T12:03:53;22.40;43.16
65470;DHT22;52067;50.710;14.492;2022-07-06T12:06:23;22.45;43.49
65470;DHT22;52067;50.710;14.492;2022-07-06T12:08:53;24.50;40.01
65470;DHT22;52067;50.710;14.492;2022-07-06T12:11:22;23.10;39.52
65470;DHT22;52067;50.710;14.492;2022-07-06T12:13:53;23.52;40.53
65470;DHT22;52067;50.710;14.492;2022-07-06T12:16:20;25.16;39.45
65470;DHT22;52067;50.710;14.492;2022-07-06T12:18:48;26.59;38.14
65470;DHT22;52067;50.710;14.492;2022-07-06T12:21:16;26.47;33.28
65470;DHT22;52067;50.710;14.492;2022-07-06T12:23:44;25.37;37.27
65470;DHT22;52067;50.710;14.492;2022-07-06T12:26:11;23.67;43.76
65470;DHT22;52067;50.710;14.492;2022-07-06T12:28:37;24.00;38.05
65470;DHT22;52067;50.710;14.492;2022-07-06T12:31:03;23.48;41.09
65470;DHT22;52067;50.710;14.492;2022-07-06T12:33:28;24.17;38.71
65470;DHT22;52067;50.710;14.492;2022-07-06T12:35:54;24.99;37.31
65470;DHT22;52067;50.710;14.492;2022-07-06T12:38:26;26.08;34.41
65470;DHT22;52067;50.710;14.492;2022-07-06T12:40:53;26.06;34.67
65470;DHT22;52067;50.710;14.492;2022-07-06T12:43:35;24.33;40.87
65470;DHT22;52067;50.710;14.492;2022-07-06T12:46:25;24.07;39.52
65470;DHT22;52067;50.710;14.492;2022-07-06T12:48:52;23.15;43.48
65470;DHT22;52067;50.710;14.492;2022-07-06T12:51:18;25.51;36.97
65470;DHT22;52067;50.710;14.492;2022-07-06T12:53:44;26.94;34.93
65470;DHT22;52067;50.710;14.492;2022-07-06T12:56:14;24.82;38.59
65470;DHT22;52067;50.710;14.492;2022-07-06T12:58:40;27.08;34.86
65470;DHT22;52067;50.710;14.492;2022-07-06T13:01:18;26.49;33.18
65470;DHT22;52067;50.710;14.492;2022-07-06T13:03:44;25.60;37.65
65470;DHT22;52067;50.710;14.492;2022-07-06T13:06:09;26.98;34.57
65470;DHT22;52067;50.710;14.492;2022-07-06T13:08:34;26.84;34.66
65470;DHT22;52067;50.710;14.492;2022-07-06T13:11:00;26.69;38.61
65470;DHT22;52067;50.710;14.492;2022-07-06T13:13:25;27.21;34.09
65470;DHT22;52067;50.710;14.492;2022-07-06T13:15:51;25.15;38.15
65470;DHT22;52067;50.710;14.492;2022-07-06T13:18:16;24.79;38.50
65470;DHT22;52067;50.710;14.492;2022-07-06T13:20:43;26.37;36.65
65470;DHT22;52067;50.710;14.492;2022-07-06T13:23:09;26.24;36.55
65470;DHT22;52067;50.710;14.492;2022-07-06T13:25:34;27.92;32.60
65470;DHT22;52067;50.710;14.492;2022-07-06T13:28:00;28.14;32.77
65470;DHT22;52067;50.710;14.492;2022-07-06T13:30:25;27.82;33.20
65470;DHT22;52067;50.710;14.492;2022-07-06T13:32:50;27.18;34.21
65470;DHT22;52067;50.710;14.492;2022-07-06T13:35:16;25.22;40.40
65470;DHT22;52067;50.710;14.492;2022-07-06T13:37:43;27.90;30.37
65470;DHT22;52067;50.710;14.492;2022-07-06T13:40:09;28.72;30.15
65470;DHT22;52067;50.710;14.492;2022-07-06T13:42:34;28.76;32.21
65470;DHT22;52067;50.710;14.492;2022-07-06T13:44:59;25.43;38.22
65470;DHT22;52067;50.710;14.492;2022-07-06T13:47:25;27.48;33.83
65470;DHT22;52067;50.710;14.492;2022-07-06T13:49:50;29.06;29.60
65470;DHT22;52067;50.710;14.492;2022-07-06T13:52:16;28.33;30.56
65470;DHT22;52067;50.710;14.492;2022-07-06T13:54:41;27.65;33.66
65470;DHT22;52067;50.710;14.492;2022-07-06T13:57:06;25.73;34.43
65470;DHT22;52067;50.710;14.492;2022-07-06T13:59:32;26.66;33.59
65470;DHT22;52067;50.710;14.492;2022-07-06T14:01:58;27.62;32.57
65470;DHT22;52067;50.710;14.492;2022-07-06T14:04:23;28.85;27.16
65470;DHT22;52067;50.710;14.492;2022-07-06T14:06:48;27.37;30.94
65470;DHT22;52067;50.710;14.492;2022-07-06T14:09:14;26.04;32.92
65470;DHT22;52067;50.710;14.492;2022-07-06T14:11:39;28.04;30.10
65470;DHT22;52067;50.710;14.492;2022-07-06T14:14:05;27.93;32.57
65470;DHT22;52067;50.710;14.492;2022-07-06T14:16:33;28.16;28.85
65470;DHT22;52067;50.710;14.492;2022-07-06T14:18:59;26.63;32.81
65470;DHT22;52067;50.710;14.492;2022-07-06T14:21:25;28.36;32.50
65470;DHT22;52067;50.710;14.492;2022-07-06T14:23:51;26.06;34.52
65470;DHT22;52067;50.710;14.492;2022-07-06T14:26:16;26.22;35.24
65470;DHT22;52067;50.710;14.492;2022-07-06T14:28:42;26.36;36.20
65470;DHT22;52067;50.710;14.492;2022-07-06T14:31:07;27.73;32.45
65470;DHT22;52067;50.710;14.492;2022-07-06T14:33:33;27.20;32.37
65470;DHT22;52067;50.710;14.492;2022-07-06T14:35:58;27.17;31.64
65470;DHT22;52067;50.710;14.492;2022-07-06T14:38:24;24.91;35.92
65470;DHT22;52067;50.710;14.492;2022-07-06T14:40:50;23.83;37.97
65470;DHT22;52067;50.710;14.492;2022-07-06T14:43:16;25.56;33.49
65470;DHT22;52067;50.710;14.492;2022-07-06T14:45:43;26.96;32.78
65470;DHT22;52067;50.710;14.492;2022-07-06T14:48:10;23.89;36.42
65470;DHT22;52067;50.710;14.492;2022-07-06T14:50:35;24.43;40.52
65470;DHT22;52067;50.710;14.492;2022-07-06T14:53:00;27.76;32.65
65470;DHT22;52067;50.710;14.492;2022-07-06T14:55:29;26.76;31.30
65470;DHT22;52067;50.710;14.492;2022-07-06T14:57:54;24.54;36.30
65470;DHT22;52067;50.710;14.492;2022-07-06T15:00:20;25.91;32.76
65470;DHT22;52067;50.710;14.492;2022-07-06T15:02:46;27.66;33.22
65470;DHT22;52067;50.710;14.492;2022-07-06T15:05:12;26.39;33.90
65470;DHT22;52067;50.710;14.492;2022-07-06T15:07:38;25.23;33.97
65470;DHT22;52067;50.710;14.492;2022-07-06T15:10:05;27.15;31.18
65470;DHT22;52067;50.710;14.492;2022-07-06T15:12:31;25.12;36.93
65470;DHT22;52067;50.710;14.492;2022-07-06T15:14:56;25.64;33.75
65470;DHT22;52067;50.710;14.492;2022-07-06T15:17:22;27.56;29.71
65470;DHT22;52067;50.710;14.492;2022-07-06T15:19:47;26.52;32.34
65470;DHT22;52067;50.710;14.492;2022-07-06T15:22:13;25.13;35.20
65470;DHT22;52067;50.710;14.492;2022-07-06T15:24:38;26.06;33.70